sensor_id;sensor_type;location;lat;lon;timestamp;P1;durP1;ratioP1;P2;durP2;ratioP2
14975;SDS011;7584;60.468;25.126;2022-10-16T00:01:30;24.03;;;16.17;;
14975;SDS011;7584;60.468;25.126;2022-10-16T00:03:56;25.30;;;16.80;;
14975;SDS011;7584;60.468;25.126;2022-10-16T00:06:22;22.83;;;16.33;;
14975;SDS011;7584;60.468;25.126;2022-10-16T00:08:47;25.53;;;17.10;;
14975;SDS011;7584;60.468;25.126;2022-10-16T00:11:34;25.13;;;17.33;;
14975;SDS011;7584;60.468;25.126;2022-10-16T00:13:59;21.13;;;16.47;;
14975;SDS011;7584;60.468;25.126;2022-10-16T00:16:25;24.53;;;16.10;;
14975;SDS011;7584;60.468;25.126;2022-10-16T00:18:50;26.10;;;17.00;;
14975;SDS011;7584;60.468;25.126;2022-10-16T00:21:17;24.93;;;16.67;;
14975;SDS011;7584;60.468;25.126;2022-10-16T00:23:42;28.13;;;16.10;;
14975;SDS011;7584;60.468;25.126;2022-10-16T00:26:09;27.30;;;15.83;;
14975;SDS011;7584;60.468;25.126;2022-10-16T00:28:35;24.50;;;16.53;;
14975;SDS011;7584;60.468;25.126;2022-10-16T00:31:07;27.40;;;16.40;;
14975;SDS011;7584;60.468;25.126;2022-10-16T00:33:33;27.47;;;15.80;;
14975;SDS011;7584;60.468;25.126;2022-10-16T00:35:59;26.97;;;15.37;;
14975;SDS011;7584;60.468;25.126;2022-10-16T00:38:25;28.23;;;15.53;;
14975;SDS011;7584;60.468;25.126;2022-10-16T00:40:50;24.13;;;16.33;;
14975;SDS011;7584;60.468;25.126;2022-10-16T00:43:37;24.80;;;16.53;;
14975;SDS011;7584;60.468;25.126;2022-10-16T00:46:04;25.87;;;16.70;;
14975;SDS011;7584;60.468;25.126;2022-10-16T00:48:30;23.00;;;15.10;;
14975;SDS011;7584;60.468;25.126;2022-10-16T00:50:56;25.10;;;15.33;;
14975;SDS011;7584;60.468;25.126;2022-10-16T00:53:22;28.53;;;16.37;;
14975;SDS011;7584;60.468;25.126;2022-10-16T00:55:49;24.63;;;15.63;;
14975;SDS011;7584;60.468;25.126;2022-10-16T00:58:15;27.20;;;16.50;;
14975;SDS011;7584;60.468;25.126;2022-10-16T01:00:40;24.07;;;16.63;;
14975;SDS011;7584;60.468;25.126;2022-10-16T01:03:21;24.07;;;15.27;;
14975;SDS011;7584;60.468;25.126;2022-10-16T01:05:49;23.33;;;15.87;;
14975;SDS011;7584;60.468;25.126;2022-10-16T01:08:20;27.83;;;16.57;;
14975;SDS011;7584;60.468;25.126;2022-10-16T01:11:12;29.53;;;16.47;;
14975;SDS011;7584;60.468;25.126;2022-10-16T01:13:34;22.97;;;14.97;;
14975;SDS011;7584;60.468;25.126;2022-10-16T01:16:05;24.40;;;16.27;;
14975;SDS011;7584;60.468;25.126;2022-10-16T01:21:08;31.47;;;17.23;;
14975;SDS011;7584;60.468;25.126;2022-10-16T01:23:42;27.30;;;17.77;;
14975;SDS011;7584;60.468;25.126;2022-10-16T01:28:51;28.57;;;18.07;;
14975;SDS011;7584;60.468;25.126;2022-10-16T01:31:18;29.57;;;18.23;;
14975;SDS011;7584;60.468;25.126;2022-10-16T01:33:47;30.83;;;19.73;;
14975;SDS011;7584;60.468;25.126;2022-10-16T01:36:13;29.50;;;18.70;;
14975;SDS011;7584;60.468;25.126;2022-10-16T01:38:40;32.67;;;18.90;;
14975;SDS011;7584;60.468;25.126;2022-10-16T01:41:13;26.53;;;17.33;;
14975;SDS011;7584;60.468;25.126;2022-10-16T01:43:45;28.33;;;18.10;;
14975;SDS011;7584;60.468;25.126;2022-10-16T01:46:11;30.03;;;18.13;;
14975;SDS011;7584;60.468;25.126;2022-10-16T01:48:38;24.03;;;17.43;;
14975;SDS011;7584;60.468;25.126;2022-10-16T01:51:08;30.87;;;18.47;;
14975;SDS011;7584;60.468;25.126;2022-10-16T01:53:35;30.97;;;18.87;;
14975;SDS011;7584;60.468;25.126;2022-10-16T01:56:01;27.87;;;19.03;;
14975;SDS011;7584;60.468;25.126;2022-10-16T01:58:28;28.73;;;18.30;;
14975;SDS011;7584;60.468;25.126;2022-10-16T02:00:56;27.30;;;18.20;;
14975;SDS011;7584;60.468;25.126;2022-10-16T02:03:21;29.77;;;19.00;;
14975;SDS011;7584;60.468;25.126;2022-10-16T02:05:51;26.40;;;17.17;;
14975;SDS011;7584;60.468;25.126;2022-10-16T02:08:17;28.17;;;17.53;;
14975;SDS011;7584;60.468;25.126;2022-10-16T02:10:43;33.17;;;19.60;;
14975;SDS011;7584;60.468;25.126;2022-10-16T02:13:19;30.07;;;18.53;;
14975;SDS011;7584;60.468;25.126;2022-10-16T02:15:47;32.70;;;19.33;;
14975;SDS011;7584;60.468;25.126;2022-10-16T02:18:12;27.70;;;19.00;;
14975;SDS011;7584;60.468;25.126;2022-10-16T02:20:40;31.07;;;19.40;;
14975;SDS011;7584;60.468;25.126;2022-10-16T02:23:08;29.33;;;18.93;;
14975;SDS011;7584;60.468;25.126;2022-10-16T02:25:35;28.17;;;18.17;;
14975;SDS011;7584;60.468;25.126;2022-10-16T02:28:08;28.23;;;17.33;;
14975;SDS011;7584;60.468;25.126;2022-10-16T02:30:42;31.73;;;18.87;;
14975;SDS011;7584;60.468;25.126;2022-10-16T02:33:09;30.33;;;18.93;;
14975;SDS011;7584;60.468;25.126;2022-10-16T02:35:35;31.63;;;20.80;;
14975;SDS011;7584;60.468;25.126;2022-10-16T02:38:00;34.27;;;19.60;;
14975;SDS011;7584;60.468;25.126;2022-10-16T02:40:26;28.43;;;19.30;;
14975;SDS011;7584;60.468;25.126;2022-10-16T02:42:52;29.00;;;20.57;;
14975;SDS011;7584;60.468;25.126;2022-10-16T02:45:18;31.13;;;20.13;;
14975;SDS011;7584;60.468;25.126;2022-10-16T02:47:43;31.63;;;20.20;;
14975;SDS011;7584;60.468;25.126;2022-10-16T02:50:09;39.93;;;20.90;;
14975;SDS011;7584;60.468;25.126;2022-10-16T02:52:34;34.53;;;22.43;;
14975;SDS011;7584;60.468;25.126;2022-10-16T02:54:59;34.70;;;20.93;;
14975;SDS011;7584;60.468;25.126;2022-10-16T02:57:25;32.20;;;20.03;;
14975;SDS011;7584;60.468;25.126;2022-10-16T02:59:50;33.20;;;20.80;;
14975;SDS011;7584;60.468;25.126;2022-10-16T03:02:15;36.40;;;21.60;;
14975;SDS011;7584;60.468;25.126;2022-10-16T03:04:41;34.23;;;23.00;;
14975;SDS011;7584;60.468;25.126;2022-10-16T03:07:06;33.77;;;22.43;;
14975;SDS011;7584;60.468;25.126;2022-10-16T03:09:32;39.00;;;22.73;;
14975;SDS011;7584;60.468;25.126;2022-10-16T03:11:57;41.10;;;22.73;;
14975;SDS011;7584;60.468;25.126;2022-10-16T03:14:23;36.13;;;22.63;;
14975;SDS011;7584;60.468;25.126;2022-10-16T03:16:48;34.87;;;20.97;;
14975;SDS011;7584;60.468;25.126;2022-10-16T03:19:13;41.67;;;23.27;;
14975;SDS011;7584;60.468;25.126;2022-10-16T03:21:39;36.70;;;22.93;;
14975;SDS011;7584;60.468;25.126;2022-10-16T03:24:04;37.83;;;23.40;;
14975;SDS011;7584;60.468;25.126;2022-10-16T03:26:30;36.37;;;22.90;;
14975;SDS011;7584;60.468;25.126;2022-10-16T03:28:55;40.37;;;25.23;;
14975;SDS011;7584;60.468;25.126;2022-10-16T03:31:20;36.80;;;23.80;;
14975;SDS011;7584;60.468;25.126;2022-10-16T03:33:46;31.73;;;21.70;;
14975;SDS011;7584;60.468;25.126;2022-10-16T03:36:11;33.63;;;21.53;;
14975;SDS011;7584;60.468;25.126;2022-10-16T03:38:36;34.83;;;22.50;;
14975;SDS011;7584;60.468;25.126;2022-10-16T03:41:02;31.87;;;19.73;;
14975;SDS011;7584;60.468;25.126;2022-10-16T03:43:27;31.77;;;20.07;;
14975;SDS011;7584;60.468;25.126;2022-10-16T03:45:52;30.43;;;17.73;;
14975;SDS011;7584;60.468;25.126;2022-10-16T03:48:18;30.93;;;19.23;;
14975;SDS011;7584;60.468;25.126;2022-10-16T03:50:43;28.00;;;18.67;;
14975;SDS011;7584;60.468;25.126;2022-10-16T03:53:09;25.50;;;17.63;;
14975;SDS011;7584;60.468;25.126;2022-10-16T03:55:34;30.60;;;17.30;;
14975;SDS011;7584;60.468;25.126;2022-10-16T03:58:00;26.90;;;16.90;;
14975;SDS011;7584;60.468;25.126;2022-10-16T04:00:25;27.50;;;17.40;;
14975;SDS011;7584;60.468;25.126;2022-10-16T04:02:50;23.00;;;16.13;;
14975;SDS011;7584;60.468;25.126;2022-10-16T04:05:16;27.37;;;16.80;;
14975;SDS011;7584;60.468;25.126;2022-10-16T04:07:41;26.23;;;17.27;;
14975;SDS011;7584;60.468;25.126;2022-10-16T04:10:06;24.47;;;17.13;;
14975;SDS011;7584;60.468;25.126;2022-10-16T04:12:32;26.70;;;16.27;;
14975;SDS011;7584;60.468;25.126;2022-10-16T04:14:57;29.00;;;16.43;;
14975;SDS011;7584;60.468;25.126;2022-10-16T04:17:22;29.27;;;17.20;;
14975;SDS011;7584;60.468;25.126;2022-10-16T04:19:48;25.80;;;15.53;;
14975;SDS011;7584;60.468;25.126;2022-10-16T04:22:13;27.50;;;16.67;;
14975;SDS011;7584;60.468;25.126;2022-10-16T04:24:38;23.47;;;15.00;;
14975;SDS011;7584;60.468;25.126;2022-10-16T04:27:03;24.97;;;16.27;;
14975;SDS011;7584;60.468;25.126;2022-10-16T04:29:29;25.00;;;16.67;;
14975;SDS011;7584;60.468;25.126;2022-10-16T04:31:54;21.10;;;15.50;;
14975;SDS011;7584;60.468;25.126;2022-10-16T04:34:19;21.03;;;14.70;;
14975;SDS011;7584;60.468;25.126;2022-10-16T04:36:46;23.93;;;15.57;;
14975;SDS011;7584;60.468;25.126;2022-10-16T04:39:12;25.50;;;15.00;;
14975;SDS011;7584;60.468;25.126;2022-10-16T04:41:37;23.33;;;15.33;;
14975;SDS011;7584;60.468;25.126;2022-10-16T04:44:02;21.23;;;13.90;;
14975;SDS011;7584;60.468;25.126;2022-10-16T04:46:28;20.70;;;14.77;;
14975;SDS011;7584;60.468;25.126;2022-10-16T04:48:53;21.73;;;13.57;;
14975;SDS011;7584;60.468;25.126;2022-10-16T04:51:19;19.83;;;13.93;;
14975;SDS011;7584;60.468;25.126;2022-10-16T04:53:44;19.07;;;13.50;;
14975;SDS011;7584;60.468;25.126;2022-10-16T04:56:09;20.03;;;12.80;;
14975;SDS011;7584;60.468;25.126;2022-10-16T04:58:34;19.33;;;12.70;;
14975;SDS011;7584;60.468;25.126;2022-10-16T05:01:00;18.63;;;12.80;;
14975;SDS011;7584;60.468;25.126;2022-10-16T05:03:25;18.73;;;12.43;;
14975;SDS011;7584;60.468;25.126;2022-10-16T05:05:50;18.27;;;13.33;;
14975;SDS011;7584;60.468;25.126;2022-10-16T05:08:16;19.90;;;12.03;;
14975;SDS011;7584;60.468;25.126;2022-10-16T05:10:42;16.97;;;11.73;;
14975;SDS011;7584;60.468;25.126;2022-10-16T05:13:07;17.70;;;11.87;;
14975;SDS011;7584;60.468;25.126;2022-10-16T05:15:33;15.23;;;11.23;;
14975;SDS011;7584;60.468;25.126;2022-10-16T05:17:58;16.40;;;11.30;;
14975;SDS011;7584;60.468;25.126;2022-10-16T05:20:23;14.60;;;10.40;;
14975;SDS011;7584;60.468;25.126;2022-10-16T05:22:49;17.70;;;9.73;;
14975;SDS011;7584;60.468;25.126;2022-10-16T05:25:14;14.13;;;9.67;;
14975;SDS011;7584;60.468;25.126;2022-10-16T05:27:39;12.83;;;8.87;;
14975;SDS011;7584;60.468;25.126;2022-10-16T05:30:05;12.73;;;9.23;;
14975;SDS011;7584;60.468;25.126;2022-10-16T05:32:30;12.87;;;8.47;;
14975;SDS011;7584;60.468;25.126;2022-10-16T05:34:55;14.87;;;9.00;;
14975;SDS011;7584;60.468;25.126;2022-10-16T05:37:21;11.87;;;8.43;;
14975;SDS011;7584;60.468;25.126;2022-10-16T05:39:46;10.47;;;7.63;;
14975;SDS011;7584;60.468;25.126;2022-10-16T05:42:12;9.47;;;7.70;;
14975;SDS011;7584;60.468;25.126;2022-10-16T05:44:37;11.17;;;7.53;;
14975;SDS011;7584;60.468;25.126;2022-10-16T05:47:02;9.37;;;7.27;;
14975;SDS011;7584;60.468;25.126;2022-10-16T05:49:28;8.20;;;6.43;;
14975;SDS011;7584;60.468;25.126;2022-10-16T05:51:53;10.53;;;6.90;;
14975;SDS011;7584;60.468;25.126;2022-10-16T05:54:18;9.33;;;6.53;;
14975;SDS011;7584;60.468;25.126;2022-10-16T05:56:43;9.53;;;6.67;;
14975;SDS011;7584;60.468;25.126;2022-10-16T05:59:09;12.70;;;7.53;;
14975;SDS011;7584;60.468;25.126;2022-10-16T06:01:34;8.73;;;7.10;;
14975;SDS011;7584;60.468;25.126;2022-10-16T06:04:00;9.63;;;7.40;;
14975;SDS011;7584;60.468;25.126;2022-10-16T06:06:26;11.97;;;7.37;;
14975;SDS011;7584;60.468;25.126;2022-10-16T06:08:51;8.90;;;7.13;;
14975;SDS011;7584;60.468;25.126;2022-10-16T06:11:18;11.80;;;7.67;;
14975;SDS011;7584;60.468;25.126;2022-10-16T06:13:43;11.47;;;8.07;;
14975;SDS011;7584;60.468;25.126;2022-10-16T06:16:11;11.20;;;8.37;;
14975;SDS011;7584;60.468;25.126;2022-10-16T06:18:36;11.80;;;8.33;;
14975;SDS011;7584;60.468;25.126;2022-10-16T06:21:06;10.23;;;7.77;;
14975;SDS011;7584;60.468;25.126;2022-10-16T06:23:32;11.77;;;7.87;;
14975;SDS011;7584;60.468;25.126;2022-10-16T06:26:04;12.33;;;8.67;;
14975;SDS011;7584;60.468;25.126;2022-10-16T06:28:29;10.40;;;6.93;;
14975;SDS011;7584;60.468;25.126;2022-10-16T06:31:01;11.97;;;7.63;;
14975;SDS011;7584;60.468;25.126;2022-10-16T06:33:26;11.27;;;7.73;;
14975;SDS011;7584;60.468;25.126;2022-10-16T06:35:51;12.40;;;8.83;;
14975;SDS011;7584;60.468;25.126;2022-10-16T06:38:17;13.20;;;9.07;;
14975;SDS011;7584;60.468;25.126;2022-10-16T06:40:42;12.57;;;9.17;;
14975;SDS011;7584;60.468;25.126;2022-10-16T06:43:07;13.30;;;8.47;;
14975;SDS011;7584;60.468;25.126;2022-10-16T06:45:33;12.77;;;8.90;;
14975;SDS011;7584;60.468;25.126;2022-10-16T06:47:58;12.07;;;10.03;;
14975;SDS011;7584;60.468;25.126;2022-10-16T06:50:23;14.83;;;10.53;;
14975;SDS011;7584;60.468;25.126;2022-10-16T06:52:48;13.87;;;10.40;;
14975;SDS011;7584;60.468;25.126;2022-10-16T06:55:14;17.50;;;10.63;;
14975;SDS011;7584;60.468;25.126;2022-10-16T06:57:40;17.90;;;11.57;;
14975;SDS011;7584;60.468;25.126;2022-10-16T07:00:05;21.33;;;12.23;;
14975;SDS011;7584;60.468;25.126;2022-10-16T07:02:31;20.00;;;13.17;;
14975;SDS011;7584;60.468;25.126;2022-10-16T07:04:56;20.50;;;14.07;;
14975;SDS011;7584;60.468;25.126;2022-10-16T07:07:22;24.83;;;15.03;;
14975;SDS011;7584;60.468;25.126;2022-10-16T07:09:49;25.63;;;15.40;;
14975;SDS011;7584;60.468;25.126;2022-10-16T07:12:14;25.63;;;15.63;;
14975;SDS011;7584;60.468;25.126;2022-10-16T07:14:40;24.47;;;15.57;;
14975;SDS011;7584;60.468;25.126;2022-10-16T07:17:05;25.93;;;14.23;;
14975;SDS011;7584;60.468;25.126;2022-10-16T07:19:30;25.03;;;15.47;;
14975;SDS011;7584;60.468;25.126;2022-10-16T07:21:56;31.13;;;16.17;;
14975;SDS011;7584;60.468;25.126;2022-10-16T07:24:22;24.00;;;14.23;;
14975;SDS011;7584;60.468;25.126;2022-10-16T07:26:47;22.20;;;13.90;;
14975;SDS011;7584;60.468;25.126;2022-10-16T07:29:16;26.37;;;14.67;;
14975;SDS011;7584;60.468;25.126;2022-10-16T07:31:42;24.97;;;13.90;;
14975;SDS011;7584;60.468;25.126;2022-10-16T07:34:08;25.90;;;12.70;;
14975;SDS011;7584;60.468;25.126;2022-10-16T07:36:34;25.00;;;13.87;;
14975;SDS011;7584;60.468;25.126;2022-10-16T07:38:59;24.37;;;13.53;;
14975;SDS011;7584;60.468;25.126;2022-10-16T07:41:25;25.63;;;14.03;;
14975;SDS011;7584;60.468;25.126;2022-10-16T07:43:51;26.47;;;14.00;;
14975;SDS011;7584;60.468;25.126;2022-10-16T07:46:17;23.13;;;12.63;;
14975;SDS011;7584;60.468;25.126;2022-10-16T07:48:42;25.37;;;13.40;;
14975;SDS011;7584;60.468;25.126;2022-10-16T07:51:11;23.23;;;12.70;;
14975;SDS011;7584;60.468;25.126;2022-10-16T07:53:36;23.37;;;12.33;;
14975;SDS011;7584;60.468;25.126;2022-10-16T07:56:02;24.00;;;12.10;;
14975;SDS011;7584;60.468;25.126;2022-10-16T07:58:28;18.37;;;10.50;;
14975;SDS011;7584;60.468;25.126;2022-10-16T08:00:53;15.30;;;10.43;;
14975;SDS011;7584;60.468;25.126;2022-10-16T08:03:19;19.33;;;10.43;;
14975;SDS011;7584;60.468;25.126;2022-10-16T08:05:44;17.97;;;9.97;;
14975;SDS011;7584;60.468;25.126;2022-10-16T08:08:13;15.17;;;9.80;;
14975;SDS011;7584;60.468;25.126;2022-10-16T08:10:39;14.83;;;9.00;;
14975;SDS011;7584;60.468;25.126;2022-10-16T08:13:04;16.40;;;9.67;;
14975;SDS011;7584;60.468;25.126;2022-10-16T08:15:29;14.00;;;8.43;;
14975;SDS011;7584;60.468;25.126;2022-10-16T08:17:58;15.40;;;10.00;;
14975;SDS011;7584;60.468;25.126;2022-10-16T08:20:24;12.20;;;7.93;;
14975;SDS011;7584;60.468;25.126;2022-10-16T08:22:49;10.67;;;7.43;;
14975;SDS011;7584;60.468;25.126;2022-10-16T08:25:15;15.03;;;7.90;;
14975;SDS011;7584;60.468;25.126;2022-10-16T08:27:40;20.83;;;12.00;;
14975;SDS011;7584;60.468;25.126;2022-10-16T08:30:06;22.00;;;11.67;;
14975;SDS011;7584;60.468;25.126;2022-10-16T08:32:31;21.60;;;11.97;;
14975;SDS011;7584;60.468;25.126;2022-10-16T08:34:57;27.10;;;13.37;;
14975;SDS011;7584;60.468;25.126;2022-10-16T08:37:22;28.17;;;13.70;;
14975;SDS011;7584;60.468;25.126;2022-10-16T08:39:47;28.57;;;14.37;;
14975;SDS011;7584;60.468;25.126;2022-10-16T08:47:45;27.77;;;13.63;;
14975;SDS011;7584;60.468;25.126;2022-10-16T08:50:13;31.80;;;14.80;;
14975;SDS011;7584;60.468;25.126;2022-10-16T08:52:39;20.73;;;12.93;;
14975;SDS011;7584;60.468;25.126;2022-10-16T08:55:05;21.03;;;12.13;;
14975;SDS011;7584;60.468;25.126;2022-10-16T08:57:30;18.57;;;10.57;;
14975;SDS011;7584;60.468;25.126;2022-10-16T09:00:00;17.23;;;10.83;;
14975;SDS011;7584;60.468;25.126;2022-10-16T09:02:50;22.80;;;11.47;;
14975;SDS011;7584;60.468;25.126;2022-10-16T09:10:33;20.50;;;10.23;;
14975;SDS011;7584;60.468;25.126;2022-10-16T09:18:09;16.73;;;10.10;;
14975;SDS011;7584;60.468;25.126;2022-10-16T09:20:42;19.93;;;9.53;;
14975;SDS011;7584;60.468;25.126;2022-10-16T09:23:12;18.97;;;9.57;;
14975;SDS011;7584;60.468;25.126;2022-10-16T09:25:39;11.70;;;7.83;;
14975;SDS011;7584;60.468;25.126;2022-10-16T09:28:07;13.30;;;7.90;;
14975;SDS011;7584;60.468;25.126;2022-10-16T09:30:32;11.50;;;7.97;;
14975;SDS011;7584;60.468;25.126;2022-10-16T09:32:58;13.53;;;7.23;;
14975;SDS011;7584;60.468;25.126;2022-10-16T09:35:40;11.43;;;7.37;;
14975;SDS011;7584;60.468;25.126;2022-10-16T09:38:07;13.10;;;8.03;;
14975;SDS011;7584;60.468;25.126;2022-10-16T09:40:33;14.10;;;8.53;;
14975;SDS011;7584;60.468;25.126;2022-10-16T09:43:24;19.67;;;10.73;;
14975;SDS011;7584;60.468;25.126;2022-10-16T09:45:59;22.03;;;11.97;;
14975;SDS011;7584;60.468;25.126;2022-10-16T09:48:59;22.47;;;13.23;;
14975;SDS011;7584;60.468;25.126;2022-10-16T09:51:21;32.03;;;16.00;;
14975;SDS011;7584;60.468;25.126;2022-10-16T09:53:47;33.47;;;14.83;;
14975;SDS011;7584;60.468;25.126;2022-10-16T09:56:21;30.57;;;16.10;;
14975;SDS011;7584;60.468;25.126;2022-10-16T09:58:50;32.07;;;16.77;;
14975;SDS011;7584;60.468;25.126;2022-10-16T10:01:16;28.50;;;17.07;;
14975;SDS011;7584;60.468;25.126;2022-10-16T10:03:42;27.53;;;16.53;;
14975;SDS011;7584;60.468;25.126;2022-10-16T10:06:19;31.20;;;16.93;;
14975;SDS011;7584;60.468;25.126;2022-10-16T10:08:56;26.83;;;15.13;;
14975;SDS011;7584;60.468;25.126;2022-10-16T10:11:38;33.70;;;17.20;;
14975;SDS011;7584;60.468;25.126;2022-10-16T10:14:26;33.23;;;17.63;;
14975;SDS011;7584;60.468;25.126;2022-10-16T10:16:50;23.63;;;15.60;;
14975;SDS011;7584;60.468;25.126;2022-10-16T10:19:17;28.77;;;16.33;;
14975;SDS011;7584;60.468;25.126;2022-10-16T10:21:43;38.37;;;17.23;;
14975;SDS011;7584;60.468;25.126;2022-10-16T10:24:12;28.60;;;16.83;;
14975;SDS011;7584;60.468;25.126;2022-10-16T10:26:38;28.50;;;17.03;;
14975;SDS011;7584;60.468;25.126;2022-10-16T10:29:06;30.47;;;17.00;;
14975;SDS011;7584;60.468;25.126;2022-10-16T10:31:40;30.57;;;17.67;;
14975;SDS011;7584;60.468;25.126;2022-10-16T10:36:39;26.93;;;17.00;;
14975;SDS011;7584;60.468;25.126;2022-10-16T10:44:27;27.53;;;16.97;;
14975;SDS011;7584;60.468;25.126;2022-10-16T10:46:57;25.97;;;15.47;;
14975;SDS011;7584;60.468;25.126;2022-10-16T10:49:26;29.87;;;16.53;;
14975;SDS011;7584;60.468;25.126;2022-10-16T10:51:57;22.00;;;16.23;;
14975;SDS011;7584;60.468;25.126;2022-10-16T11:02:35;24.37;;;14.93;;
14975;SDS011;7584;60.468;25.126;2022-10-16T11:07:38;26.07;;;15.00;;
14975;SDS011;7584;60.468;25.126;2022-10-16T11:10:11;24.40;;;15.05;;
14975;SDS011;7584;60.468;25.126;2022-10-16T11:12:39;21.33;;;15.03;;
14975;SDS011;7584;60.468;25.126;2022-10-16T11:20:28;25.13;;;15.60;;
14975;SDS011;7584;60.468;25.126;2022-10-16T11:23:00;20.07;;;14.37;;
14975;SDS011;7584;60.468;25.126;2022-10-16T11:25:28;23.23;;;15.13;;
14975;SDS011;7584;60.468;25.126;2022-10-16T11:28:11;24.20;;;15.37;;
14975;SDS011;7584;60.468;25.126;2022-10-16T11:30:50;23.63;;;15.30;;
14975;SDS011;7584;60.468;25.126;2022-10-16T11:38:35;23.80;;;15.47;;
14975;SDS011;7584;60.468;25.126;2022-10-16T11:41:14;30.10;;;17.53;;
14975;SDS011;7584;60.468;25.126;2022-10-16T11:43:46;25.37;;;16.43;;
14975;SDS011;7584;60.468;25.126;2022-10-16T11:46:18;30.37;;;16.27;;
14975;SDS011;7584;60.468;25.126;2022-10-16T11:54:02;36.13;;;18.23;;
14975;SDS011;7584;60.468;25.126;2022-10-16T11:56:29;32.60;;;17.83;;
14975;SDS011;7584;60.468;25.126;2022-10-16T11:58:59;27.53;;;17.83;;
14975;SDS011;7584;60.468;25.126;2022-10-16T12:01:38;31.20;;;18.13;;
14975;SDS011;7584;60.468;25.126;2022-10-16T12:04:17;31.10;;;17.73;;
14975;SDS011;7584;60.468;25.126;2022-10-16T12:07:19;27.37;;;16.77;;
14975;SDS011;7584;60.468;25.126;2022-10-16T12:09:37;26.03;;;18.20;;
14975;SDS011;7584;60.468;25.126;2022-10-16T12:12:03;32.23;;;19.50;;
14975;SDS011;7584;60.468;25.126;2022-10-16T12:16:55;29.03;;;19.77;;
14975;SDS011;7584;60.468;25.126;2022-10-16T12:19:21;38.07;;;21.37;;
14975;SDS011;7584;60.468;25.126;2022-10-16T12:21:46;34.73;;;21.13;;
14975;SDS011;7584;60.468;25.126;2022-10-16T12:24:27;30.10;;;19.30;;
14975;SDS011;7584;60.468;25.126;2022-10-16T12:26:54;27.50;;;18.10;;
14975;SDS011;7584;60.468;25.126;2022-10-16T12:29:30;25.83;;;18.57;;
14975;SDS011;7584;60.468;25.126;2022-10-16T12:31:56;25.43;;;16.73;;
14975;SDS011;7584;60.468;25.126;2022-10-16T12:34:27;31.27;;;18.87;;
14975;SDS011;7584;60.468;25.126;2022-10-16T12:36:53;27.47;;;17.90;;
14975;SDS011;7584;60.468;25.126;2022-10-16T12:39:27;27.57;;;17.00;;
14975;SDS011;7584;60.468;25.126;2022-10-16T12:42:06;29.30;;;18.33;;
14975;SDS011;7584;60.468;25.126;2022-10-16T12:44:44;29.57;;;18.33;;
14975;SDS011;7584;60.468;25.126;2022-10-16T12:47:18;28.23;;;17.60;;
14975;SDS011;7584;60.468;25.126;2022-10-16T12:49:48;29.13;;;18.23;;
14975;SDS011;7584;60.468;25.126;2022-10-16T12:52:27;30.77;;;18.13;;
14975;SDS011;7584;60.468;25.126;2022-10-16T12:54:55;29.57;;;18.03;;
14975;SDS011;7584;60.468;25.126;2022-10-16T12:59:54;29.20;;;18.47;;
14975;SDS011;7584;60.468;25.126;2022-10-16T13:02:39;29.77;;;18.03;;
14975;SDS011;7584;60.468;25.126;2022-10-16T13:05:25;28.33;;;18.23;;
14975;SDS011;7584;60.468;25.126;2022-10-16T13:08:09;33.40;;;19.13;;
14975;SDS011;7584;60.468;25.126;2022-10-16T13:15:57;32.27;;;18.97;;
14975;SDS011;7584;60.468;25.126;2022-10-16T13:18:27;33.90;;;19.60;;
14975;SDS011;7584;60.468;25.126;2022-10-16T13:28:38;33.07;;;18.50;;
14975;SDS011;7584;60.468;25.126;2022-10-16T13:31:04;35.60;;;19.27;;
14975;SDS011;7584;60.468;25.126;2022-10-16T13:35:56;32.60;;;19.73;;
14975;SDS011;7584;60.468;25.126;2022-10-16T13:38:25;32.67;;;18.40;;
14975;SDS011;7584;60.468;25.126;2022-10-16T13:40:55;31.67;;;18.73;;
14975;SDS011;7584;60.468;25.126;2022-10-16T13:43:25;35.27;;;18.63;;
14975;SDS011;7584;60.468;25.126;2022-10-16T13:45:56;33.27;;;19.27;;
14975;SDS011;7584;60.468;25.126;2022-10-16T13:48:21;34.13;;;19.87;;
14975;SDS011;7584;60.468;25.126;2022-10-16T13:50:57;34.57;;;19.70;;
14975;SDS011;7584;60.468;25.126;2022-10-16T13:53:22;27.93;;;18.70;;
14975;SDS011;7584;60.468;25.126;2022-10-16T13:55:48;32.23;;;19.37;;
14975;SDS011;7584;60.468;25.126;2022-10-16T13:58:13;29.20;;;18.80;;
14975;SDS011;7584;60.468;25.126;2022-10-16T14:00:39;33.13;;;18.97;;
14975;SDS011;7584;60.468;25.126;2022-10-16T14:03:07;35.07;;;18.77;;
14975;SDS011;7584;60.468;25.126;2022-10-16T14:05:32;31.83;;;19.77;;
14975;SDS011;7584;60.468;25.126;2022-10-16T14:07:58;35.13;;;19.83;;
14975;SDS011;7584;60.468;25.126;2022-10-16T14:12:59;33.80;;;18.80;;
14975;SDS011;7584;60.468;25.126;2022-10-16T14:15:25;34.10;;;20.27;;
14975;SDS011;7584;60.468;25.126;2022-10-16T14:17:51;31.90;;;19.50;;
14975;SDS011;7584;60.468;25.126;2022-10-16T14:20:17;33.03;;;19.43;;
14975;SDS011;7584;60.468;25.126;2022-10-16T14:22:43;32.60;;;16.17;;
14975;SDS011;7584;60.468;25.126;2022-10-16T14:27:58;25.30;;;14.10;;
14975;SDS011;7584;60.468;25.126;2022-10-16T14:30:25;21.63;;;14.43;;
14975;SDS011;7584;60.468;25.126;2022-10-16T14:33:51;18.90;;;12.23;;
14975;SDS011;7584;60.468;25.126;2022-10-16T14:35:45;19.70;;;12.17;;
14975;SDS011;7584;60.468;25.126;2022-10-16T14:38:18;16.70;;;11.00;;
14975;SDS011;7584;60.468;25.126;2022-10-16T14:40:46;17.00;;;11.17;;
14975;SDS011;7584;60.468;25.126;2022-10-16T14:43:20;16.87;;;10.20;;
14975;SDS011;7584;60.468;25.126;2022-10-16T14:45:49;13.67;;;9.17;;
14975;SDS011;7584;60.468;25.126;2022-10-16T14:48:16;16.27;;;9.30;;
14975;SDS011;7584;60.468;25.126;2022-10-16T14:50:42;16.53;;;10.17;;
14975;SDS011;7584;60.468;25.126;2022-10-16T14:53:11;14.63;;;9.83;;
14975;SDS011;7584;60.468;25.126;2022-10-16T14:55:37;13.03;;;9.80;;
14975;SDS011;7584;60.468;25.126;2022-10-16T14:58:02;15.40;;;10.47;;
14975;SDS011;7584;60.468;25.126;2022-10-16T15:00:27;15.67;;;10.43;;
14975;SDS011;7584;60.468;25.126;2022-10-16T15:02:53;17.03;;;11.33;;
14975;SDS011;7584;60.468;25.126;2022-10-16T15:07:43;14.93;;;10.50;;
14975;SDS011;7584;60.468;25.126;2022-10-16T15:10:09;16.43;;;11.03;;
14975;SDS011;7584;60.468;25.126;2022-10-16T15:12:35;18.73;;;11.43;;
14975;SDS011;7584;60.468;25.126;2022-10-16T15:15:00;17.73;;;10.63;;
14975;SDS011;7584;60.468;25.126;2022-10-16T15:17:25;15.20;;;10.77;;
14975;SDS011;7584;60.468;25.126;2022-10-16T15:19:51;19.03;;;10.87;;
14975;SDS011;7584;60.468;25.126;2022-10-16T15:22:16;17.87;;;11.17;;
14975;SDS011;7584;60.468;25.126;2022-10-16T15:24:42;18.17;;;10.70;;
14975;SDS011;7584;60.468;25.126;2022-10-16T15:27:07;17.13;;;9.53;;
14975;SDS011;7584;60.468;25.126;2022-10-16T15:29:33;15.23;;;9.87;;
14975;SDS011;7584;60.468;25.126;2022-10-16T15:31:58;16.40;;;9.17;;
14975;SDS011;7584;60.468;25.126;2022-10-16T15:34:23;14.70;;;9.63;;
14975;SDS011;7584;60.468;25.126;2022-10-16T15:36:48;14.73;;;9.03;;
14975;SDS011;7584;60.468;25.126;2022-10-16T15:41:39;14.73;;;9.10;;
14975;SDS011;7584;60.468;25.126;2022-10-16T15:44:04;14.83;;;10.13;;
14975;SDS011;7584;60.468;25.126;2022-10-16T15:46:30;12.53;;;9.13;;
14975;SDS011;7584;60.468;25.126;2022-10-16T15:48:57;13.93;;;9.30;;
14975;SDS011;7584;60.468;25.126;2022-10-16T15:51:22;10.90;;;8.33;;
14975;SDS011;7584;60.468;25.126;2022-10-16T15:53:47;13.17;;;8.93;;